createdAt,value
2019-02-21T00:00:05.278Z,985.74
2019-02-21T00:01:05.399Z,985.77
2019-02-21T00:02:04.913Z,985.74
2019-02-21T00:03:04.518Z,985.74
2019-02-21T00:04:04.652Z,985.68
2019-02-21T00:05:04.718Z,985.74
2019-02-21T00:06:04.837Z,985.74
2019-02-21T00:07:04.902Z,985.71
2019-02-21T00:08:05.233Z,985.74
2019-02-21T00:09:05.399Z,985.71
2019-02-21T00:10:04.923Z,985.77
2019-02-21T00:11:04.754Z,985.88
2019-02-21T00:12:05.403Z,985.77
2019-02-21T00:13:04.601Z,985.86
2019-02-21T00:14:04.925Z,985.80
2019-02-21T00:15:04.954Z,985.86
2019-02-21T00:16:05.179Z,985.86
2019-02-21T00:17:05.432Z,985.88
2019-02-21T00:18:04.793Z,985.88
2019-02-21T00:19:05.116Z,986.05
2019-02-21T00:20:05.303Z,985.83
2019-02-21T00:21:04.724Z,985.83
2019-02-21T00:22:04.859Z,985.89
2019-02-21T00:23:04.513Z,985.94
2019-02-21T00:24:04.629Z,985.75
2019-02-21T00:25:04.894Z,985.86
2019-02-21T00:26:05.121Z,985.83
2019-02-21T00:27:05.108Z,985.89
2019-02-21T00:28:04.674Z,985.80
2019-02-21T00:29:04.808Z,985.81
2019-02-21T00:30:05.099Z,985.78
2019-02-21T00:31:05.424Z,985.95
2019-02-21T00:32:09.942Z,986.00
2019-02-21T00:33:05.423Z,985.89
2019-02-21T00:34:05.366Z,985.83
2019-02-21T00:35:04.852Z,985.92
2019-02-21T00:36:05.274Z,985.89
2019-02-21T00:37:05.502Z,985.98
2019-02-21T00:38:04.577Z,985.81
2019-02-21T00:39:04.731Z,985.98
2019-02-21T00:40:05.172Z,985.98
2019-02-21T00:41:04.654Z,986.00
2019-02-21T00:42:04.801Z,986.00
2019-02-21T00:43:04.957Z,985.89
2019-02-21T00:44:05.407Z,986.06
2019-02-21T00:45:05.354Z,985.92
2019-02-21T00:46:04.564Z,986.01
2019-02-21T00:47:04.720Z,985.89
2019-02-21T00:48:04.964Z,985.98
2019-02-21T00:49:05.325Z,985.98
2019-02-21T00:50:04.576Z,986.03
2019-02-21T00:51:05.062Z,986.12
2019-02-21T00:52:05.299Z,985.89
2019-02-21T00:53:04.721Z,985.92
2019-02-21T00:54:04.721Z,985.95
2019-02-21T00:55:04.828Z,986.09
2019-02-21T00:56:05.034Z,986.04
2019-02-21T00:57:04.570Z,986.18
2019-02-21T00:58:04.828Z,986.04
2019-02-21T00:59:05.142Z,986.12
2019-02-21T01:00:04.803Z,986.09
2019-02-21T01:01:04.883Z,986.18
2019-02-21T01:02:05.050Z,986.07
2019-02-21T01:03:05.391Z,985.93
2019-02-21T01:04:04.481Z,986.18
2019-02-21T01:05:05.170Z,985.93
2019-02-21T01:06:10.298Z,986.07
2019-02-21T01:07:04.635Z,986.01
2019-02-21T01:08:05.320Z,985.95
2019-02-21T01:09:05.470Z,986.09
2019-02-21T01:10:04.994Z,986.12
2019-02-21T01:11:05.203Z,986.15
2019-02-21T01:12:04.479Z,986.07
2019-02-21T01:13:04.576Z,986.09
2019-02-21T01:14:05.013Z,986.09
2019-02-21T01:15:05.449Z,986.01
2019-02-21T01:16:04.837Z,986.04
2019-02-21T01:17:05.220Z,985.98
2019-02-21T01:18:05.396Z,986.01
2019-02-21T01:19:04.771Z,986.01
2019-02-21T01:20:04.792Z,986.12
2019-02-21T01:21:04.887Z,985.93
2019-02-21T01:22:04.466Z,986.12
2019-02-21T01:23:05.060Z,986.01
2019-02-21T01:24:05.613Z,986.04
2019-02-21T01:25:05.382Z,985.98
2019-02-21T01:26:04.985Z,985.87
2019-02-21T01:27:04.587Z,985.93
2019-02-21T01:28:05.290Z,986.04
2019-02-21T01:29:10.469Z,985.90
2019-02-21T01:30:04.819Z,985.79
2019-02-21T01:31:04.961Z,986.01
2019-02-21T01:32:05.036Z,985.90
2019-02-21T01:33:04.515Z,985.93
2019-02-21T01:34:04.897Z,985.84
2019-02-21T01:35:05.129Z,985.98
2019-02-21T01:36:05.442Z,985.84
2019-02-21T01:37:05.451Z,986.04
2019-02-21T01:38:04.559Z,986.04
2019-02-21T01:39:04.669Z,986.04
2019-02-21T01:40:05.429Z,985.98
2019-02-21T01:41:04.629Z,985.87
2019-02-21T01:42:04.832Z,985.99
2019-02-21T01:43:05.296Z,985.93
2019-02-21T01:44:05.342Z,985.85
2019-02-21T01:45:04.670Z,985.79
2019-02-21T01:46:04.855Z,985.85
2019-02-21T01:47:04.907Z,985.85
2019-02-21T01:48:04.931Z,985.79
2019-02-21T01:49:09.857Z,985.90
2019-02-21T01:50:04.615Z,985.85
2019-02-21T01:51:04.603Z,985.82
2019-02-21T01:52:04.646Z,985.82
2019-02-21T01:53:04.885Z,985.91
2019-02-21T01:54:05.316Z,985.74
2019-02-21T01:55:05.451Z,985.96
2019-02-21T01:56:04.760Z,985.85
2019-02-21T01:57:04.795Z,985.85
2019-02-21T01:58:05.162Z,985.99
2019-02-21T01:59:05.408Z,985.85
2019-02-21T02:00:04.502Z,985.74
2019-02-21T02:01:09.263Z,985.80
2019-02-21T02:02:04.876Z,985.71
2019-02-21T02:03:05.442Z,985.74
2019-02-21T02:04:05.047Z,985.77
2019-02-21T02:05:04.717Z,985.71
2019-02-21T02:06:05.013Z,985.88
2019-02-21T02:07:05.158Z,985.83
2019-02-21T02:08:05.163Z,985.71
2019-02-21T02:09:05.535Z,985.71
2019-02-21T02:10:04.996Z,985.77
2019-02-21T02:11:05.228Z,985.63
2019-02-21T02:12:05.576Z,985.97
2019-02-21T02:13:04.564Z,985.85
2019-02-21T02:14:04.585Z,985.60
2019-02-21T02:15:04.782Z,985.80
2019-02-21T02:16:04.918Z,985.66
2019-02-21T02:17:05.273Z,985.72
2019-02-21T02:18:05.107Z,985.72
2019-02-21T02:19:05.285Z,985.83
2019-02-21T02:20:13.448Z,985.69
2019-02-21T02:21:04.816Z,985.69
2019-02-21T02:22:05.002Z,985.55
2019-02-21T02:23:05.038Z,985.72
2019-02-21T02:24:05.229Z,985.61
2019-02-21T02:25:04.634Z,985.61
2019-02-21T02:26:04.998Z,985.55
2019-02-21T02:27:05.043Z,985.72
2019-02-21T02:28:05.496Z,985.63
2019-02-21T02:29:09.833Z,985.63
2019-02-21T02:30:05.382Z,985.58
2019-02-21T02:31:04.740Z,985.69
2019-02-21T02:32:04.725Z,985.72
2019-02-21T02:33:04.970Z,985.64
2019-02-21T02:34:05.222Z,985.83
2019-02-21T02:35:05.300Z,985.66
2019-02-21T02:36:04.917Z,985.72
2019-02-21T02:37:05.317Z,985.72
2019-02-21T02:38:05.319Z,985.78
2019-02-21T02:39:04.561Z,985.69
2019-02-21T02:40:04.831Z,985.58
2019-02-21T02:41:04.970Z,985.80
2019-02-21T02:42:05.515Z,985.80
2019-02-21T02:43:04.598Z,985.83
2019-02-21T02:44:04.577Z,985.72
2019-02-21T02:45:04.911Z,985.63
2019-02-21T02:46:05.013Z,985.72
2019-02-21T02:47:05.060Z,985.72
2019-02-21T02:48:05.409Z,985.69
2019-02-21T02:49:04.705Z,985.72
2019-02-21T02:50:05.126Z,985.69
2019-02-21T02:51:04.610Z,985.80
2019-02-21T02:52:05.055Z,985.74
2019-02-21T02:53:04.806Z,985.77
2019-02-21T02:54:05.496Z,985.69
2019-02-21T02:55:04.964Z,985.66
2019-02-21T02:56:05.028Z,985.69
2019-02-21T02:57:05.090Z,985.69
2019-02-21T02:58:07.035Z,985.66
2019-02-21T02:59:04.745Z,985.74
2019-02-21T03:00:05.310Z,985.69
2019-02-21T03:01:04.762Z,985.80
2019-02-21T03:02:04.761Z,985.71
2019-02-21T03:03:04.916Z,985.63
2019-02-21T03:04:05.096Z,985.66
2019-02-21T03:05:05.440Z,985.63
2019-02-21T03:06:04.467Z,985.63
2019-02-21T03:07:05.080Z,985.63
2019-02-21T03:08:05.284Z,985.63
2019-02-21T03:09:04.754Z,985.63
2019-02-21T03:10:04.801Z,985.52
2019-02-21T03:11:05.371Z,985.57
2019-02-21T03:12:04.594Z,985.69
2019-02-21T03:13:05.304Z,985.69
2019-02-21T03:14:04.565Z,985.57
2019-02-21T03:15:04.853Z,985.60
2019-02-21T03:16:04.824Z,985.63
2019-02-21T03:17:05.577Z,985.80
2019-02-21T03:18:05.071Z,985.57
2019-02-21T03:19:04.625Z,985.55
2019-02-21T03:20:04.647Z,985.63
2019-02-21T03:21:05.013Z,985.60
2019-02-21T03:22:05.035Z,985.66
2019-02-21T03:23:04.612Z,985.46
2019-02-21T03:24:05.178Z,985.49
2019-02-21T03:25:04.491Z,985.54
2019-02-21T03:26:04.996Z,985.40
2019-02-21T03:27:04.483Z,985.46
2019-02-21T03:28:04.964Z,985.57
2019-02-21T03:29:10.057Z,985.57
2019-02-21T03:30:05.514Z,985.60
2019-02-21T03:31:04.694Z,985.51
2019-02-21T03:32:04.798Z,985.49
2019-02-21T03:33:04.968Z,985.57
2019-02-21T03:34:05.331Z,985.54
2019-02-21T03:35:05.380Z,985.57
2019-02-21T03:36:05.548Z,985.49
2019-02-21T03:37:04.984Z,985.54
2019-02-21T03:38:04.704Z,985.54
2019-02-21T03:39:04.941Z,985.65
2019-02-21T03:40:05.498Z,985.54
2019-02-21T03:41:05.031Z,985.54
2019-02-21T03:42:04.826Z,985.71
2019-02-21T03:43:04.915Z,985.57
2019-02-21T03:44:05.150Z,985.54
2019-02-21T03:45:05.158Z,985.57
2019-02-21T03:46:04.834Z,985.65
2019-02-21T03:47:05.345Z,985.57
2019-02-21T03:48:05.248Z,985.51
2019-02-21T03:49:04.696Z,985.68
2019-02-21T03:50:05.422Z,985.62
2019-02-21T03:51:04.586Z,985.57
2019-02-21T03:52:05.191Z,985.51
2019-02-21T03:53:04.514Z,985.48
2019-02-21T03:54:04.609Z,985.68
2019-02-21T03:55:04.846Z,985.57
2019-02-21T03:56:05.012Z,985.65
2019-02-21T03:57:04.611Z,985.68
2019-02-21T03:58:04.763Z,985.65
2019-02-21T03:59:05.079Z,985.71
2019-02-21T04:00:04.524Z,985.82
2019-02-21T04:01:04.954Z,985.76
2019-02-21T04:02:06.097Z,985.79
2019-02-21T04:03:04.742Z,985.82
2019-02-21T04:04:04.834Z,985.71
2019-02-21T04:05:04.756Z,985.82
2019-02-21T04:06:05.203Z,985.73
2019-02-21T04:07:05.462Z,985.93
2019-02-21T04:08:05.064Z,985.76
2019-02-21T04:09:05.378Z,985.65
2019-02-21T04:10:05.330Z,985.85
2019-02-21T04:11:04.655Z,985.79
2019-02-21T04:12:04.832Z,985.73
2019-02-21T04:13:04.649Z,985.62
2019-02-21T04:14:04.729Z,985.71
2019-02-21T04:15:04.723Z,985.84
2019-02-21T04:16:05.333Z,985.79
2019-02-21T04:17:04.493Z,985.90
2019-02-21T04:18:04.804Z,985.73
2019-02-21T04:19:04.783Z,985.79
2019-02-21T04:20:05.161Z,985.79
2019-02-21T04:21:04.659Z,985.73
2019-02-21T04:22:05.126Z,985.70
2019-02-21T04:23:05.399Z,985.79
2019-02-21T04:24:04.542Z,985.67
2019-02-21T04:25:04.903Z,985.76
2019-02-21T04:26:04.957Z,985.70
2019-02-21T04:27:05.029Z,985.65
2019-02-21T04:28:04.847Z,985.76
2019-02-21T04:29:05.344Z,985.76
2019-02-21T04:30:04.932Z,985.87
2019-02-21T04:31:10.044Z,985.67
2019-02-21T04:32:17.206Z,985.56
2019-02-21T04:33:04.961Z,985.70
2019-02-21T04:34:04.508Z,985.64
2019-02-21T04:35:04.621Z,985.73
2019-02-21T04:36:05.451Z,985.67
2019-02-21T04:37:05.767Z,985.73
2019-02-21T04:38:04.673Z,985.76
2019-02-21T04:39:05.030Z,985.84
2019-02-21T04:40:05.383Z,985.64
2019-02-21T04:41:05.095Z,985.81
2019-02-21T04:42:05.220Z,985.78
2019-02-21T04:43:05.361Z,985.73
2019-02-21T04:44:04.694Z,985.64
2019-02-21T04:45:05.258Z,985.76
2019-02-21T04:46:05.469Z,985.70
2019-02-21T04:47:04.714Z,985.73
2019-02-21T04:48:05.221Z,985.64
2019-02-21T04:49:05.139Z,985.64
2019-02-21T04:50:04.561Z,985.87
2019-02-21T04:51:04.846Z,985.75
2019-02-21T04:52:04.671Z,985.61
2019-02-21T04:53:05.446Z,985.61
2019-02-21T04:54:04.569Z,985.64
2019-02-21T04:55:04.611Z,985.81
2019-02-21T04:56:04.930Z,985.67
2019-02-21T04:57:04.914Z,985.75
2019-02-21T04:58:04.565Z,985.64
2019-02-21T04:59:07.128Z,985.67
2019-02-21T05:00:04.795Z,985.70
2019-02-21T05:01:05.537Z,985.81
2019-02-21T05:02:04.746Z,985.81
2019-02-21T05:03:04.803Z,985.72
2019-02-21T05:04:05.466Z,985.81
2019-02-21T05:05:04.493Z,985.86
2019-02-21T05:06:04.966Z,985.70
2019-02-21T05:07:05.162Z,985.81
2019-02-21T05:08:05.209Z,985.70
2019-02-21T05:09:07.946Z,985.89
2019-02-21T05:10:04.556Z,985.73
2019-02-21T05:11:04.600Z,985.89
2019-02-21T05:12:04.818Z,985.75
2019-02-21T05:13:04.911Z,985.78
2019-02-21T05:14:04.960Z,985.78
2019-02-21T05:15:05.009Z,985.73
2019-02-21T05:16:05.430Z,985.64
2019-02-21T05:17:05.583Z,985.84
2019-02-21T05:18:04.580Z,985.76
2019-02-21T05:19:04.797Z,985.78
2019-02-21T05:20:04.884Z,985.59
2019-02-21T05:21:05.502Z,985.81
2019-02-21T05:22:04.829Z,985.64
2019-02-21T05:23:05.234Z,985.78
2019-02-21T05:24:05.308Z,985.81
2019-02-21T05:25:05.976Z,985.81
2019-02-21T05:26:05.176Z,985.81
2019-02-21T05:27:04.625Z,985.70
2019-02-21T05:28:05.016Z,985.70
2019-02-21T05:29:10.210Z,985.73
2019-02-21T05:30:04.649Z,985.70
2019-02-21T05:31:05.310Z,985.81
2019-02-21T05:32:04.653Z,985.76
2019-02-21T05:33:04.870Z,985.79
2019-02-21T05:34:05.213Z,985.73
2019-02-21T05:35:04.593Z,985.67
2019-02-21T05:36:04.880Z,985.62
2019-02-21T05:37:04.841Z,985.79
2019-02-21T05:38:07.644Z,985.81
2019-02-21T05:39:04.996Z,985.73
2019-02-21T05:40:05.090Z,985.65
2019-02-21T05:41:05.345Z,985.56
2019-02-21T05:42:04.586Z,985.73
2019-02-21T05:43:04.870Z,985.76
2019-02-21T05:44:05.182Z,985.73
2019-02-21T05:45:05.103Z,985.67
2019-02-21T05:46:05.337Z,985.70
2019-02-21T05:47:04.931Z,985.79
2019-02-21T05:48:05.332Z,985.76
2019-02-21T05:49:04.618Z,985.76
2019-02-21T05:50:04.814Z,985.70
2019-02-21T05:51:05.122Z,985.67
2019-02-21T05:52:05.056Z,985.73
2019-02-21T05:53:04.648Z,985.65
2019-02-21T05:54:04.753Z,985.76
2019-02-21T05:55:05.153Z,985.73
2019-02-21T05:56:05.222Z,985.62
2019-02-21T05:57:04.927Z,985.65
2019-02-21T05:58:05.427Z,985.65
2019-02-21T05:59:04.954Z,985.76
2019-02-21T06:00:04.576Z,985.54
2019-02-21T06:01:04.836Z,985.76
2019-02-21T06:02:04.845Z,985.87
2019-02-21T06:03:05.449Z,985.79
2019-02-21T06:04:04.520Z,985.90
2019-02-21T06:05:04.847Z,985.82
2019-02-21T06:06:05.174Z,985.79
2019-02-21T06:07:05.247Z,985.70
2019-02-21T06:08:05.483Z,985.79
2019-02-21T06:09:04.553Z,985.76
2019-02-21T06:10:04.764Z,985.68
2019-02-21T06:11:05.262Z,985.95
2019-02-21T06:12:05.425Z,985.93
2019-02-21T06:13:05.428Z,985.84
2019-02-21T06:14:04.584Z,985.79
2019-02-21T06:15:05.022Z,985.82
2019-02-21T06:16:05.214Z,985.73
2019-02-21T06:17:05.239Z,985.82
2019-02-21T06:18:05.510Z,985.93
2019-02-21T06:19:04.628Z,985.84
2019-02-21T06:20:04.795Z,985.82
2019-02-21T06:21:05.113Z,985.79
2019-02-21T06:22:11.251Z,985.79
2019-02-21T06:23:05.085Z,985.85
2019-02-21T06:24:05.273Z,985.87
2019-02-21T06:25:04.838Z,985.85
2019-02-21T06:26:04.893Z,985.82
2019-02-21T06:27:05.036Z,985.79
2019-02-21T06:28:04.602Z,985.87
2019-02-21T06:29:10.348Z,985.74
2019-02-21T06:30:05.064Z,985.99
2019-02-21T06:31:04.887Z,985.68
2019-02-21T06:32:14.779Z,985.79
2019-02-21T06:33:05.985Z,985.90
2019-02-21T06:34:04.744Z,985.85
2019-02-21T06:35:05.138Z,985.76
2019-02-21T06:36:05.460Z,985.87
2019-02-21T06:37:04.593Z,986.04
2019-02-21T06:38:05.325Z,985.87
2019-02-21T06:39:05.409Z,985.82
2019-02-21T06:40:04.955Z,985.98
2019-02-21T06:41:05.088Z,985.73
2019-02-21T06:42:05.430Z,985.90
2019-02-21T06:43:05.045Z,985.87
2019-02-21T06:44:05.394Z,985.82
2019-02-21T06:45:05.246Z,985.87
2019-02-21T06:46:05.222Z,985.81
2019-02-21T06:47:05.376Z,985.95
2019-02-21T06:48:05.159Z,986.04
2019-02-21T06:49:05.270Z,985.95
2019-02-21T06:50:04.554Z,985.90
2019-02-21T06:51:04.804Z,985.90
2019-02-21T06:52:05.206Z,985.76
2019-02-21T06:53:05.525Z,986.04
2019-02-21T06:54:04.594Z,985.84
2019-02-21T06:55:05.377Z,985.81
2019-02-21T06:56:04.719Z,985.84
2019-02-21T06:57:05.184Z,985.78
2019-02-21T06:58:05.312Z,985.81
2019-02-21T06:59:04.906Z,985.84
2019-02-21T07:00:05.391Z,985.87
2019-02-21T07:01:04.499Z,985.95
2019-02-21T07:02:05.196Z,985.89
2019-02-21T07:03:16.253Z,985.92
2019-02-21T07:04:04.926Z,985.98
2019-02-21T07:05:05.482Z,985.87
2019-02-21T07:06:04.634Z,986.00
2019-02-21T07:07:05.036Z,985.81
2019-02-21T07:08:05.359Z,985.89
2019-02-21T07:09:04.760Z,986.00
2019-02-21T07:10:05.298Z,986.06
2019-02-21T07:11:06.934Z,985.97
2019-02-21T07:12:04.588Z,986.03
2019-02-21T07:13:04.709Z,985.94
2019-02-21T07:14:05.173Z,986.00
2019-02-21T07:15:04.787Z,986.08
2019-02-21T07:16:04.905Z,986.03
2019-02-21T07:17:04.510Z,986.02
2019-02-21T07:18:04.895Z,986.00
2019-02-21T07:19:05.332Z,986.11
2019-02-21T07:20:04.592Z,986.13
2019-02-21T07:21:05.234Z,986.19
2019-02-21T07:22:06.732Z,986.16
2019-02-21T07:23:05.527Z,986.13
2019-02-21T07:24:04.601Z,986.05
2019-02-21T07:25:04.728Z,986.21
2019-02-21T07:26:05.180Z,986.24
2019-02-21T07:27:04.816Z,986.15
2019-02-21T07:28:15.446Z,986.15
2019-02-21T07:29:10.479Z,986.32
2019-02-21T07:30:04.998Z,986.35
2019-02-21T07:31:05.110Z,986.35
2019-02-21T07:32:05.196Z,986.40
2019-02-21T07:33:05.347Z,986.18
2019-02-21T07:34:07.374Z,986.26
2019-02-21T07:35:05.201Z,986.34
2019-02-21T07:36:05.336Z,986.34
2019-02-21T07:37:04.625Z,986.34
2019-02-21T07:38:04.754Z,986.45
2019-02-21T07:39:20.506Z,986.34
2019-02-21T07:40:05.403Z,986.36
2019-02-21T07:41:05.134Z,986.47
2019-02-21T07:42:05.464Z,986.42
2019-02-21T07:43:04.937Z,986.47
2019-02-21T07:44:12.710Z,986.50
2019-02-21T07:45:05.357Z,986.33
2019-02-21T07:46:07.237Z,986.47
2019-02-21T07:47:05.490Z,986.41
2019-02-21T07:48:05.291Z,986.33
2019-02-21T07:49:15.604Z,986.52
2019-02-21T07:50:04.973Z,986.49
2019-02-21T07:51:05.245Z,986.52
2019-02-21T07:52:05.983Z,986.49
2019-02-21T07:53:04.735Z,986.43
2019-02-21T07:54:04.956Z,986.40
2019-02-21T07:55:05.222Z,986.56
2019-02-21T07:56:05.391Z,986.56
2019-02-21T07:57:04.657Z,986.59
2019-02-21T07:58:04.827Z,986.49
2019-02-21T07:59:05.283Z,986.49
2019-02-21T08:00:04.480Z,986.54
2019-02-21T08:01:05.241Z,986.51
2019-02-21T08:02:05.494Z,986.64
2019-02-21T08:03:05.187Z,986.70
2019-02-21T08:04:05.528Z,986.64
2019-02-21T08:05:04.573Z,986.58
2019-02-21T08:06:04.680Z,986.56
2019-02-21T08:07:05.362Z,986.58
2019-02-21T08:08:04.747Z,986.67
2019-02-21T08:09:04.971Z,986.64
2019-02-21T08:10:04.800Z,986.72
2019-02-21T08:11:07.563Z,986.69
2019-02-21T08:12:05.373Z,986.66
2019-02-21T08:13:05.306Z,986.58
2019-02-21T08:14:05.546Z,986.75
2019-02-21T08:15:04.540Z,986.66
2019-02-21T08:16:04.906Z,986.83
2019-02-21T08:17:04.778Z,986.86
2019-02-21T08:18:04.978Z,986.74
2019-02-21T08:19:04.564Z,986.74
2019-02-21T08:20:09.007Z,986.58
2019-02-21T08:21:04.838Z,986.66
2019-02-21T08:22:05.359Z,986.60
2019-02-21T08:23:05.527Z,986.77
2019-02-21T08:24:04.736Z,986.71
2019-02-21T08:25:05.294Z,986.80
2019-02-21T08:26:04.783Z,986.57
2019-02-21T08:27:05.076Z,986.63
2019-02-21T08:28:05.617Z,986.68
2019-02-21T08:29:06.594Z,986.79
2019-02-21T08:30:05.264Z,986.71
2019-02-21T08:31:04.621Z,986.71
2019-02-21T08:32:04.833Z,986.71
2019-02-21T08:33:04.861Z,986.74
2019-02-21T08:34:05.251Z,986.76
2019-02-21T08:35:07.241Z,986.76
2019-02-21T08:36:04.964Z,986.76
2019-02-21T08:37:05.314Z,986.76
2019-02-21T08:38:04.840Z,986.65
2019-02-21T08:39:04.557Z,986.56
2019-02-21T08:40:05.223Z,986.76
2019-02-21T08:41:05.439Z,986.67
2019-02-21T08:42:04.536Z,986.67
2019-02-21T08:43:04.822Z,986.70
2019-02-21T08:44:05.372Z,986.59
2019-02-21T08:45:05.099Z,986.67
2019-02-21T08:46:05.307Z,986.73
2019-02-21T08:47:09.582Z,986.86
2019-02-21T08:48:05.182Z,986.58
2019-02-21T08:49:05.250Z,986.81
2019-02-21T08:50:04.987Z,986.72
2019-02-21T08:51:06.684Z,986.75
2019-02-21T08:52:04.770Z,986.78
2019-02-21T08:53:05.382Z,986.83
2019-02-21T08:54:06.236Z,986.72
2019-02-21T08:55:04.902Z,986.77
2019-02-21T08:56:05.191Z,986.77
2019-02-21T08:57:05.224Z,986.83
2019-02-21T08:58:07.131Z,986.88
2019-02-21T08:59:05.107Z,986.83
2019-02-21T09:00:05.593Z,986.77
2019-02-21T09:01:04.941Z,986.88
2019-02-21T09:02:05.478Z,986.91
2019-02-21T09:03:05.172Z,986.91
2019-02-21T09:04:26.308Z,986.80
2019-02-21T09:05:04.609Z,986.57
2019-02-21T09:06:04.952Z,986.71
2019-02-21T09:07:05.145Z,986.77
2019-02-21T09:08:05.277Z,986.68
2019-02-21T09:09:04.613Z,986.68
2019-02-21T09:10:04.610Z,986.77
2019-02-21T09:11:05.101Z,986.71
2019-02-21T09:12:06.202Z,986.76
2019-02-21T09:13:04.983Z,986.76
2019-02-21T09:14:05.065Z,986.85
2019-02-21T09:15:04.746Z,986.73
2019-02-21T09:16:05.430Z,987.01
2019-02-21T09:17:04.705Z,986.93
2019-02-21T09:18:05.319Z,986.84
2019-02-21T09:19:05.095Z,986.67
2019-02-21T09:20:05.448Z,986.81
2019-02-21T09:21:04.757Z,986.75
2019-02-21T09:22:05.350Z,986.72
2019-02-21T09:23:05.481Z,986.84
2019-02-21T09:24:04.605Z,986.75
2019-02-21T09:25:04.768Z,986.92
2019-02-21T09:26:04.490Z,986.80
2019-02-21T09:27:05.100Z,986.91
2019-02-21T09:28:04.825Z,986.83
2019-02-21T09:29:10.433Z,986.88
2019-02-21T09:30:05.667Z,986.85
2019-02-21T09:31:05.300Z,986.85
2019-02-21T09:32:07.406Z,986.85
2019-02-21T09:33:05.153Z,986.79
2019-02-21T09:34:04.758Z,986.74
2019-02-21T09:35:04.927Z,986.79
2019-02-21T09:36:04.601Z,986.79
2019-02-21T09:37:05.916Z,986.59
2019-02-21T09:38:04.712Z,986.62
2019-02-21T09:39:04.860Z,986.68
2019-02-21T09:40:05.082Z,986.64
2019-02-21T09:41:05.406Z,986.76
2019-02-21T09:42:04.547Z,986.70
2019-02-21T09:43:04.744Z,986.78
2019-02-21T09:44:05.317Z,986.73
2019-02-21T09:45:05.375Z,986.64
2019-02-21T09:46:05.268Z,986.67
2019-02-21T09:47:04.534Z,986.86
2019-02-21T09:48:04.695Z,986.69
2019-02-21T09:49:04.773Z,986.61
2019-02-21T09:50:05.077Z,986.66
2019-02-21T09:51:05.332Z,986.77
2019-02-21T09:52:04.587Z,986.57
2019-02-21T09:53:04.744Z,986.66
2019-02-21T09:54:05.035Z,986.80
2019-02-21T09:55:04.480Z,986.71
2019-02-21T09:56:04.982Z,986.65
2019-02-21T09:57:13.806Z,986.76
2019-02-21T09:58:05.485Z,986.76
2019-02-21T09:59:04.824Z,986.65
2019-02-21T10:00:04.940Z,986.70
2019-02-21T10:01:05.145Z,986.59
2019-02-21T10:02:05.538Z,986.70
2019-02-21T10:03:04.658Z,986.65
2019-02-21T10:04:05.006Z,986.70
2019-02-21T10:05:05.990Z,986.73
2019-02-21T10:06:04.996Z,986.70
2019-02-21T10:07:05.330Z,986.59
2019-02-21T10:08:04.621Z,986.64
2019-02-21T10:09:04.785Z,986.70
2019-02-21T10:10:05.022Z,986.76
2019-02-21T10:11:05.117Z,986.56
2019-02-21T10:12:04.968Z,986.76
2019-02-21T10:13:04.568Z,986.73
2019-02-21T10:14:05.338Z,986.73
2019-02-21T10:15:05.196Z,986.64
2019-02-21T10:16:05.596Z,986.59
2019-02-21T10:17:04.904Z,986.61
2019-02-21T10:18:04.816Z,986.67
2019-02-21T10:19:04.923Z,986.75
2019-02-21T10:20:05.632Z,986.70
2019-02-21T10:21:04.746Z,986.64
2019-02-21T10:22:05.147Z,986.78
2019-02-21T10:23:05.292Z,986.75
2019-02-21T10:24:05.636Z,986.87
2019-02-21T10:25:04.658Z,986.75
2019-02-21T10:26:04.733Z,986.72
2019-02-21T10:27:04.871Z,986.61
2019-02-21T10:28:04.546Z,986.66
2019-02-21T10:29:09.893Z,986.72
2019-02-21T10:30:05.289Z,986.75
2019-02-21T10:31:04.699Z,986.69
2019-02-21T10:32:05.243Z,986.72
2019-02-21T10:33:05.463Z,986.72
2019-02-21T10:34:04.663Z,986.72
2019-02-21T10:35:04.761Z,986.80
2019-02-21T10:36:04.940Z,986.69
2019-02-21T10:37:05.485Z,986.69
2019-02-21T10:38:04.569Z,986.63
2019-02-21T10:39:04.738Z,986.80
2019-02-21T10:40:05.004Z,986.69
2019-02-21T10:41:05.446Z,986.86
2019-02-21T10:42:04.506Z,986.69
2019-02-21T10:43:04.929Z,986.63
2019-02-21T10:44:05.239Z,986.75
2019-02-21T10:45:04.747Z,986.75
2019-02-21T10:46:05.003Z,986.75
2019-02-21T10:47:05.296Z,986.72
2019-02-21T10:48:04.533Z,986.83
2019-02-21T10:49:04.744Z,986.75
2019-02-21T10:50:05.408Z,986.77
2019-02-21T10:51:04.640Z,986.80
2019-02-21T10:52:04.719Z,986.75
2019-02-21T10:53:04.899Z,986.77
2019-02-21T10:54:05.415Z,986.86
2019-02-21T10:55:04.685Z,986.97
2019-02-21T10:56:05.260Z,986.97
2019-02-21T10:57:04.674Z,986.69
2019-02-21T10:58:05.384Z,986.69
2019-02-21T10:59:04.744Z,986.75
2019-02-21T11:00:05.263Z,986.78
2019-02-21T11:01:04.547Z,986.83
2019-02-21T11:02:04.879Z,986.72
2019-02-21T11:03:04.954Z,986.61
2019-02-21T11:04:05.255Z,986.69
2019-02-21T11:05:05.333Z,986.75
2019-02-21T11:06:04.523Z,986.72
2019-02-21T11:07:05.221Z,986.66
2019-02-21T11:08:04.478Z,986.75
2019-02-21T11:09:05.379Z,986.58
2019-02-21T11:10:05.474Z,986.78
2019-02-21T11:11:05.053Z,986.58
2019-02-21T11:12:05.624Z,986.58
2019-02-21T11:13:04.956Z,986.78
2019-02-21T11:14:05.074Z,986.50
2019-02-21T11:15:04.727Z,986.56
2019-02-21T11:16:05.513Z,986.58
2019-02-21T11:17:04.675Z,986.56
2019-02-21T11:18:04.924Z,986.56
2019-02-21T11:19:05.262Z,986.56
2019-02-21T11:20:04.622Z,986.50
2019-02-21T11:21:04.829Z,986.56
2019-02-21T11:22:05.181Z,986.53
2019-02-21T11:23:07.019Z,986.50
2019-02-21T11:24:04.834Z,986.53
2019-02-21T11:25:04.878Z,986.45
2019-02-21T11:26:04.595Z,986.47
2019-02-21T11:27:04.892Z,986.58
2019-02-21T11:28:05.658Z,986.45
2019-02-21T11:29:04.609Z,986.45
2019-02-21T11:30:05.057Z,986.56
2019-02-21T11:31:05.061Z,986.53
2019-02-21T11:32:05.183Z,986.53
2019-02-21T11:33:05.355Z,986.47
2019-02-21T11:34:04.616Z,986.58
2019-02-21T11:35:07.041Z,986.44
2019-02-21T11:36:04.916Z,986.58
2019-02-21T11:37:05.078Z,986.53
2019-02-21T11:38:10.151Z,986.47
2019-02-21T11:39:04.532Z,986.39
2019-02-21T11:40:06.129Z,986.47
2019-02-21T11:41:04.750Z,986.50
2019-02-21T11:42:05.407Z,986.53
2019-02-21T11:43:04.629Z,986.53
2019-02-21T11:44:04.711Z,986.50
2019-02-21T11:45:05.266Z,986.56
2019-02-21T11:46:05.536Z,986.50
2019-02-21T11:47:04.702Z,986.60
2019-02-21T11:48:05.056Z,986.50
2019-02-21T11:49:05.225Z,986.53
2019-02-21T11:50:04.842Z,986.33
2019-02-21T11:51:07.843Z,986.36
2019-02-21T11:52:10.614Z,986.33
2019-02-21T11:53:05.435Z,986.44
2019-02-21T11:54:04.948Z,986.41
2019-02-21T11:55:05.270Z,986.36
2019-02-21T11:56:05.551Z,986.41
2019-02-21T11:57:04.614Z,986.33
2019-02-21T11:58:04.995Z,986.44
2019-02-21T11:59:05.395Z,986.33
2019-02-21T12:00:04.826Z,986.36
2019-02-21T12:01:05.030Z,986.27
2019-02-21T12:02:04.531Z,986.33
2019-02-21T12:03:05.109Z,986.30
2019-02-21T12:04:05.499Z,986.38
2019-02-21T12:05:05.065Z,986.24
2019-02-21T12:06:05.402Z,986.33
2019-02-21T12:07:05.139Z,986.21
2019-02-21T12:08:05.295Z,986.16
2019-02-21T12:09:05.471Z,986.21
2019-02-21T12:10:04.858Z,986.30
2019-02-21T12:11:04.535Z,986.33
2019-02-21T12:12:04.800Z,986.35
2019-02-21T12:13:04.921Z,986.41
2019-02-21T12:14:04.997Z,986.16
2019-02-21T12:15:05.421Z,986.21
2019-02-21T12:16:04.935Z,986.35
2019-02-21T12:17:04.733Z,986.21
2019-02-21T12:18:05.209Z,986.18
2019-02-21T12:19:05.033Z,986.04
2019-02-21T12:20:04.679Z,986.18
2019-02-21T12:21:04.773Z,986.15
2019-02-21T12:22:05.384Z,986.15
2019-02-21T12:23:05.517Z,986.10
2019-02-21T12:24:04.578Z,986.15
2019-02-21T12:25:04.722Z,986.12
2019-02-21T12:26:05.033Z,986.12
2019-02-21T12:27:05.333Z,986.06
2019-02-21T12:28:05.411Z,986.12